»·PEaware :: N7DJ KFLG-KSBD

N7DJ :: KFLG-KSBD

FLIGHT INFORMATION

Flight Status: Arrived
Operator: Privately registered:
United States
More flights under this callsign
Pilot: Don J. (45483)
Aircraft: CANADAIR CL-600 CHALLENGER
(CL60)
More flights by this aircraft type
Origin: KFLG Flagstaff Pulliam
United States
Destination: KSBD San Bernardino Intl
United States
More flights between these airports :: More routes between these airports
Route: FLG1 OATES DRK J96 PKE PSP SETER5
File this flight plan on PilotEdge
Remarks: RMK / SIMBRIEF
Altitude:
(Current/Filed)
36,000ft
Speed:
(Current/Filed)
463kts
Departed: 29-Nov-23 10:52 AM
Arrived: 29-Nov-23 11:50 AM
Distance/Time
Traveled:
282nm/0:57
Distance/Time
To Go:
Arrived

Flight Plot

Page will automatically refresh every two minutes.

Flight plan parsing failed; only flown route is shown


Map Options




Map Legend


Flown Route
Filed Route
Departure Airport
Arrival Airport
Navaid (VOR, NDB)
Fix

Horizontal Profiles

Position Reports

Time Latitude Longitude Heading Altitude Ground
Speed
29-Nov-23 10:26 35.136353 -111.675864 221 7011ft 0kts
29-Nov-23 10:27 35.136353 -111.675864 221 7011ft 0kts
29-Nov-23 10:28 35.136353 -111.675864 221 7011ft 0kts
29-Nov-23 10:29 35.136353 -111.675864 221 7011ft 0kts
29-Nov-23 10:30 35.136353 -111.675864 221 7011ft 0kts
29-Nov-23 10:31 35.136353 -111.675864 221 7011ft 0kts
29-Nov-23 10:32 35.136353 -111.675864 221 7011ft 0kts
29-Nov-23 10:33 35.136353 -111.675864 221 7011ft 0kts
29-Nov-23 10:34 35.136353 -111.675864 221 7011ft 0kts
29-Nov-23 10:35 35.136353 -111.675864 221 7011ft 0kts
29-Nov-23 10:36 35.136353 -111.675864 221 7011ft 0kts
29-Nov-23 10:37 35.136353 -111.675864 221 7011ft 0kts
29-Nov-23 10:38 35.136353 -111.675864 221 7011ft 0kts
29-Nov-23 10:39 35.136353 -111.675864 221 7011ft 0kts
29-Nov-23 10:40 35.136353 -111.675864 221 7011ft 0kts
29-Nov-23 10:41 35.136353 -111.675864 221 7011ft 0kts
29-Nov-23 10:42 35.136353 -111.675864 221 7011ft 0kts
29-Nov-23 10:43 35.136353 -111.675864 221 7011ft 0kts
29-Nov-23 10:44 35.136353 -111.675864 221 7011ft 0kts
29-Nov-23 10:45 35.136353 -111.675864 221 7011ft 0kts
29-Nov-23 10:46 35.137465 -111.674050 41 7010ft 17kts
29-Nov-23 10:47 35.141751 -111.669503 41 7007ft 28kts
29-Nov-23 10:48 35.147646 -111.663213 40 6993ft 23kts
29-Nov-23 10:49 35.149858 -111.660415 127 6991ft 0kts
29-Nov-23 10:50 35.149574 -111.659973 128 6992ft 3kts
29-Nov-23 10:51 35.134688 -111.675046 219 7294ft 172kts
29-Nov-23 10:52 35.081813 -111.679608 188 10324ft 225kts
29-Nov-23 10:53 35.018359 -111.689062 188 13516ft 243kts
29-Nov-23 10:54 34.940914 -111.699521 188 15610ft 291kts
29-Nov-23 10:55 34.864813 -111.738394 243 17728ft 336kts
29-Nov-23 10:56 34.839719 -111.849393 253 19730ft 341kts
29-Nov-23 10:57 34.815418 -111.962367 253 21718ft 348kts
29-Nov-23 10:58 34.790579 -112.077143 253 23633ft 354kts
29-Nov-23 10:59 34.765042 -112.194483 252 25573ft 362kts
29-Nov-23 11:00 34.738805 -112.314403 252 27465ft 370kts
29-Nov-23 11:01 34.711876 -112.436855 252 29341ft 379kts
29-Nov-23 11:02 34.681160 -112.561073 250 30985ft 390kts
29-Nov-23 11:03 34.647751 -112.687870 249 32599ft 396kts
29-Nov-23 11:04 34.613802 -112.816117 249 33762ft 407kts
29-Nov-23 11:05 34.579135 -112.946566 249 34852ft 402kts
29-Nov-23 11:06 34.544904 -113.074736 250 36110ft 399kts
29-Nov-23 11:07 34.510267 -113.203758 250 36420ft 411kts
29-Nov-23 11:08 34.473954 -113.338361 250 36433ft 424kts
29-Nov-23 11:09 34.437271 -113.473720 250 36417ft 423kts
29-Nov-23 11:10 34.400509 -113.608660 250 36419ft 423kts
29-Nov-23 11:11 34.363511 -113.743792 250 36425ft 424kts
29-Nov-23 11:12 34.326355 -113.878854 250 36423ft 424kts
29-Nov-23 11:13 34.289036 -114.013851 250 36435ft 423kts
29-Nov-23 11:14 34.251606 -114.148598 250 36468ft 423kts
29-Nov-23 11:15 34.213944 -114.283548 250 36513ft 425kts
29-Nov-23 11:16 34.176177 -114.418236 250 36555ft 424kts
29-Nov-23 11:17 34.138274 -114.552756 250 36576ft 424kts
29-Nov-23 11:18 34.101189 -114.687870 256 36589ft 424kts
29-Nov-23 11:19 34.083090 -114.828033 259 36393ft 422kts
29-Nov-23 11:20 34.065327 -114.968458 259 36400ft 424kts
29-Nov-23 11:21 34.047395 -115.108611 259 35350ft 419kts
29-Nov-23 11:22 34.029639 -115.245918 259 33368ft 415kts
29-Nov-23 11:23 34.011621 -115.383780 258 31381ft 421kts
29-Nov-23 11:24 33.993147 -115.523757 258 29373ft 427kts
29-Nov-23 11:26 33.974397 -115.664662 257 27512ft 421kts
29-Nov-23 11:27 33.955976 -115.801910 257 25715ft 411kts
29-Nov-23 11:28 33.937829 -115.935921 257 24026ft 401kts
29-Nov-23 11:29 33.919834 -116.067654 257 22562ft 395kts
29-Nov-23 11:30 33.902106 -116.196421 257 21200ft 385kts
29-Nov-23 11:31 33.884629 -116.322364 257 19869ft 377kts
29-Nov-23 11:32 33.870088 -116.445756 269 18540ft 373kts
29-Nov-23 11:33 33.876147 -116.569295 271 17120ft 365kts
29-Nov-23 11:34 33.881875 -116.690408 270 15803ft 359kts
29-Nov-23 11:35 33.887346 -116.809209 271 14512ft 352kts
29-Nov-23 11:36 33.892633 -116.926889 271 13743ft 351kts
29-Nov-23 11:37 33.897639 -117.040429 272 12420ft 327kts
29-Nov-23 11:38 33.902111 -117.143876 272 10991ft 293kts
29-Nov-23 11:39 33.906090 -117.237391 272 9713ft 271kts
29-Nov-23 11:40 33.909810 -117.327577 272 8460ft 267kts
29-Nov-23 11:41 33.913338 -117.413507 272 7282ft 234kts
29-Nov-23 11:42 33.916713 -117.485456 281 6295ft 203kts
29-Nov-23 11:43 33.963167 -117.516960 351 5046ft 198kts
29-Nov-23 11:44 34.015619 -117.519509 29 4679ft 196kts
29-Nov-23 11:45 34.037239 -117.465709 67 4311ft 175kts
29-Nov-23 11:46 34.043133 -117.408381 68 3419ft 168kts
29-Nov-23 11:47 34.059697 -117.354861 69 2901ft 167kts
29-Nov-23 11:48 34.073750 -117.307558 69 2097ft 144kts
29-Nov-23 11:48 34.084998 -117.269659 69 1467ft 141kts
29-Nov-23 11:50 34.096854 -117.229568 70 1139ft 40kts
29-Nov-23 11:51 34.098945 -117.226717 38 1146ft 8kts
29-Nov-23 11:52 34.099081 -117.226589 38 1147ft 0kts
29-Nov-23 11:52 34.099081 -117.226589 38 1147ft 0kts
29-Nov-23 11:53 34.099694 -117.227186 283 1146ft 11kts
29-Nov-23 11:54 34.101279 -117.233672 286 1131ft 23kts
29-Nov-23 11:56 34.103437 -117.242531 287 1113ft 21kts
29-Nov-23 11:57 34.104015 -117.245733 235 1107ft 0kts
29-Nov-23 11:57 34.104015 -117.245733 235 1107ft 0kts
29-Nov-23 11:58 34.104015 -117.245733 235 1107ft 0kts
29-Nov-23 11:59 34.104015 -117.245733 235 1107ft 0kts

Navigation Log

Ident Type
Flight plan parsing failed, navigation log unavailable